QTR245 OTHH-LTFM
Flight info
| Callsign | QTR245 |
|---|---|
| Flight time | N/A |
| Altitude | 28000 |
| Route | DATRI2W/34L DATRI L564 BAT/N0508F290 L564 MIGMA/N0496F280 M628 AMBAG/N0494F340 DCT OVANO/N0485F360 L768 FIRAS R655 KTN R785 NIKAS L619 VESAR UB545 MUT UL619 OSVEL UB545 KFK UM855 SISPI |
| Aircraft | B77W/H-SDE1E2E3FGHIJ2J3J4J5M1RWXY/LB1D1 |
Departure
| Time | 2026-05-04 10:23 |
|---|---|
| Airport | Hamad International Airport (OTHH) |
Arrival
| Time | N/A |
|---|---|
| Airport | İstanbul Airport (LTFM) |
| Time | Latitude | Longitude | Altitude | Speed | Heading |
|---|---|---|---|---|---|
| 2026-05-04 09:55 | 25.26524 | 51.61080 | 27 ft | 0 kts | 68° |
| 2026-05-04 10:12 | 25.26523 | 51.61075 | 27 ft | 2 kts | 68° |
| 2026-05-04 10:13 | 25.26516 | 51.61058 | 27 ft | 2 kts | 68° |
| 2026-05-04 10:13 | 25.26510 | 51.61041 | 26 ft | 2 kts | 69° |
| 2026-05-04 10:13 | 25.26506 | 51.61024 | 25 ft | 2 kts | 78° |
| 2026-05-04 10:13 | 25.26503 | 51.61005 | 25 ft | 2 kts | 90° |
| 2026-05-04 10:14 | 25.26505 | 51.60987 | 26 ft | 2 kts | 116° |
| 2026-05-04 10:14 | 25.26511 | 51.60977 | 25 ft | 1 kts | 155° |
| 2026-05-04 10:16 | 25.26496 | 51.60984 | 26 ft | 7 kts | 156° |
| 2026-05-04 10:16 | 25.26430 | 51.61015 | 27 ft | 11 kts | 158° |
| 2026-05-04 10:17 | 25.26356 | 51.61047 | 27 ft | 11 kts | 159° |
| 2026-05-04 10:17 | 25.26282 | 51.61076 | 27 ft | 11 kts | 170° |
| 2026-05-04 10:19 | 25.26020 | 51.60650 | 26 ft | 7 kts | 156° |
| 2026-05-04 10:19 | 25.25974 | 51.60671 | 26 ft | 7 kts | 157° |
| 2026-05-04 10:19 | 25.25928 | 51.60692 | 32 ft | 7 kts | 158° |
| 2026-05-04 10:19 | 25.25880 | 51.60713 | 31 ft | 8 kts | 158° |
| 2026-05-04 10:20 | 25.25792 | 51.60751 | 29 ft | 23 kts | 158° |
| 2026-05-04 10:20 | 25.25691 | 51.60796 | 29 ft | 6 kts | 158° |
| 2026-05-04 10:20 | 25.25649 | 51.60806 | 29 ft | 6 kts | 195° |
| 2026-05-04 10:20 | 25.25626 | 51.60765 | 28 ft | 7 kts | 245° |
| 2026-05-04 10:21 | 25.25607 | 51.60715 | 26 ft | 8 kts | 247° |
| 2026-05-04 10:21 | 25.25585 | 51.60654 | 26 ft | 10 kts | 249° |
| 2026-05-04 10:21 | 25.25561 | 51.60583 | 21 ft | 7 kts | 250° |
| 2026-05-04 10:21 | 25.25570 | 51.60534 | 20 ft | 7 kts | 321° |
| 2026-05-04 10:22 | 25.26164 | 51.60276 | 26 ft | 108 kts | 338° |
| 2026-05-04 10:22 | 25.27048 | 51.59886 | 20 ft | 163 kts | 338° |
| 2026-05-04 10:22 | 25.28239 | 51.59390 | 116 ft | 194 kts | 342° |
| 2026-05-04 10:23 | 25.29476 | 51.58846 | 671 ft | 192 kts | 340° |
| 2026-05-04 10:23 | 25.30700 | 51.58301 | 1287 ft | 189 kts | 338° |
| 2026-05-04 10:25 | 25.41383 | 51.53547 | 3992 ft | 266 kts | 338° |
| 2026-05-04 10:25 | 25.43097 | 51.52783 | 4225 ft | 266 kts | 337° |
| 2026-05-04 10:25 | 25.44812 | 51.52018 | 5121 ft | 264 kts | 338° |
| 2026-05-04 10:25 | 25.46489 | 51.51197 | 5871 ft | 263 kts | 327° |
| 2026-05-04 10:26 | 25.47776 | 51.49755 | 6450 ft | 268 kts | 300° |
| 2026-05-04 10:26 | 25.48372 | 51.47814 | 6922 ft | 269 kts | 278° |
| 2026-05-04 10:26 | 25.48387 | 51.45702 | 7004 ft | 280 kts | 269° |
| 2026-05-04 10:26 | 25.48273 | 51.43539 | 6989 ft | 281 kts | 269° |
| 2026-05-04 10:27 | 25.48158 | 51.41389 | 6991 ft | 277 kts | 269° |
| 2026-05-04 10:27 | 25.48049 | 51.39272 | 6988 ft | 275 kts | 269° |
| 2026-05-04 10:27 | 25.47946 | 51.37135 | 7006 ft | 274 kts | 269° |
| 2026-05-04 10:27 | 25.47852 | 51.35057 | 6994 ft | 273 kts | 269° |
| 2026-05-04 10:28 | 25.47757 | 51.32950 | 7005 ft | 273 kts | 269° |
| 2026-05-04 10:28 | 25.47664 | 51.30849 | 7004 ft | 274 kts | 269° |
| 2026-05-04 10:28 | 25.47490 | 51.28762 | 6986 ft | 272 kts | 256° |
| 2026-05-04 10:28 | 25.46568 | 51.26922 | 7297 ft | 281 kts | 229° |
| 2026-05-04 10:29 | 25.44952 | 51.25659 | 7933 ft | 290 kts | 206° |
| 2026-05-04 10:29 | 25.42963 | 51.25194 | 8556 ft | 296 kts | 183° |
| 2026-05-04 10:29 | 25.41590 | 51.25222 | 8936 ft | 300 kts | 181° |
| 2026-05-04 10:29 | 25.39488 | 51.25282 | 9620 ft | 302 kts | 181° |
| 2026-05-04 10:30 | 25.36698 | 51.25357 | 10540 ft | 306 kts | 182° |
| 2026-05-04 10:30 | 25.34506 | 51.25396 | 10787 ft | 328 kts | 182° |
| 2026-05-04 10:30 | 25.32927 | 51.25418 | 10926 ft | 343 kts | 182° |
| 2026-05-04 10:30 | 25.29615 | 51.25460 | 11161 ft | 374 kts | 182° |
| 2026-05-04 10:31 | 25.27870 | 51.25492 | 11370 ft | 382 kts | 180° |
| 2026-05-04 10:31 | 25.25220 | 51.26048 | 11692 ft | 394 kts | 162° |
| 2026-05-04 10:32 | 25.09322 | 51.32966 | 16078 ft | 421 kts | 161° |
| 2026-05-04 10:33 | 25.06567 | 51.34124 | 16751 ft | 425 kts | 161° |
| 2026-05-04 10:33 | 25.03790 | 51.35293 | 17419 ft | 429 kts | 161° |
| 2026-05-04 10:33 | 25.00980 | 51.36474 | 18083 ft | 434 kts | 161° |
| 2026-05-04 10:33 | 24.98146 | 51.37664 | 18662 ft | 438 kts | 161° |
| 2026-05-04 10:34 | 24.95298 | 51.38861 | 19260 ft | 440 kts | 161° |
| 2026-05-04 10:34 | 24.92439 | 51.40132 | 19840 ft | 444 kts | 155° |
| 2026-05-04 10:34 | 24.89797 | 51.41934 | 20357 ft | 450 kts | 145° |
| 2026-05-04 10:34 | 24.87311 | 51.43993 | 20924 ft | 454 kts | 144° |
| 2026-05-04 10:35 | 24.84793 | 51.46099 | 21344 ft | 456 kts | 144° |
| 2026-05-04 10:35 | 24.82233 | 51.48186 | 21298 ft | 458 kts | 146° |
| 2026-05-04 10:35 | 24.79613 | 51.50263 | 21297 ft | 458 kts | 146° |
| 2026-05-04 10:35 | 24.77012 | 51.52292 | 21299 ft | 457 kts | 146° |
| 2026-05-04 10:36 | 24.74454 | 51.54266 | 21293 ft | 452 kts | 149° |
| 2026-05-04 10:36 | 24.71584 | 51.55712 | 21313 ft | 446 kts | 167° |
| 2026-05-04 10:36 | 24.68554 | 51.56156 | 21451 ft | 449 kts | 182° |
| 2026-05-04 10:36 | 24.65455 | 51.55742 | 21916 ft | 448 kts | 194° |
| 2026-05-04 10:37 | 24.62398 | 51.54995 | 22505 ft | 450 kts | 195° |
| 2026-05-04 10:37 | 24.59344 | 51.54216 | 23115 ft | 452 kts | 195° |
| 2026-05-04 10:37 | 24.56263 | 51.53435 | 23626 ft | 455 kts | 195° |
| 2026-05-04 10:37 | 24.53167 | 51.52668 | 24064 ft | 458 kts | 195° |
| 2026-05-04 10:39 | 24.34081 | 51.48141 | 26554 ft | 476 kts | 195° |
| 2026-05-04 10:39 | 24.30833 | 51.47375 | 26932 ft | 479 kts | 195° |
| 2026-05-04 10:39 | 24.27602 | 51.46613 | 27308 ft | 482 kts | 195° |
| 2026-05-04 10:40 | 24.24315 | 51.45846 | 27678 ft | 485 kts | 195° |
| 2026-05-04 10:40 | 24.20954 | 51.45276 | 27755 ft | 493 kts | 189° |
| 2026-05-04 10:40 | 24.17519 | 51.45082 | 27784 ft | 497 kts | 184° |
| 2026-05-04 10:40 | 24.14046 | 51.45114 | 27819 ft | 497 kts | 183° |
| 2026-05-04 10:41 | 24.10592 | 51.45163 | 27797 ft | 496 kts | 183° |
| 2026-05-04 10:41 | 24.07143 | 51.45208 | 27785 ft | 495 kts | 183° |
| 2026-05-04 10:41 | 24.03692 | 51.45241 | 27790 ft | 494 kts | 183° |
| 2026-05-04 10:41 | 24.00254 | 51.45261 | 27808 ft | 494 kts | 183° |
| 2026-05-04 10:42 | 23.96822 | 51.45274 | 27798 ft | 494 kts | 184° |
| 2026-05-04 10:42 | 23.93380 | 51.45282 | 27797 ft | 494 kts | 184° |
| 2026-05-04 10:42 | 23.89946 | 51.45289 | 27808 ft | 494 kts | 183° |
| 2026-05-04 10:42 | 23.86498 | 51.45296 | 27796 ft | 495 kts | 183° |
| 2026-05-04 10:43 | 23.83051 | 51.45305 | 27804 ft | 495 kts | 183° |
| 2026-05-04 10:44 | 23.58887 | 51.45370 | 27787 ft | 496 kts | 183° |
| 2026-05-04 10:45 | 23.55439 | 51.45379 | 27786 ft | 496 kts | 183° |
| 2026-05-04 10:45 | 23.51990 | 51.45389 | 27781 ft | 496 kts | 183° |
| 2026-05-04 10:45 | 23.48583 | 51.45398 | 27787 ft | 496 kts | 183° |
| 2026-05-04 10:45 | 23.45139 | 51.45421 | 27783 ft | 496 kts | 182° |
| 2026-05-04 10:46 | 23.41686 | 51.45475 | 27786 ft | 496 kts | 182° |
| 2026-05-04 10:46 | 23.38228 | 51.45540 | 27780 ft | 496 kts | 182° |
| 2026-05-04 10:46 | 23.34787 | 51.45604 | 27784 ft | 495 kts | 182° |
| 2026-05-04 10:46 | 23.31339 | 51.45664 | 27784 ft | 495 kts | 182° |
| 2026-05-04 10:47 | 23.27890 | 51.45720 | 27784 ft | 495 kts | 182° |
| 2026-05-04 10:47 | 23.24432 | 51.45774 | 27780 ft | 496 kts | 182° |
| 2026-05-04 10:47 | 23.20986 | 51.45828 | 27780 ft | 496 kts | 182° |
| 2026-05-04 10:47 | 23.17531 | 51.45882 | 27782 ft | 496 kts | 182° |
| 2026-05-04 10:49 | 22.93523 | 51.45365 | 27778 ft | 484 kts | 205° |
| 2026-05-04 10:49 | 22.90653 | 51.43596 | 27785 ft | 478 kts | 221° |
| 2026-05-04 10:50 | 22.88348 | 51.41034 | 27783 ft | 475 kts | 236° |
| 2026-05-04 10:51 | 22.86341 | 51.16876 | 27778 ft | 473 kts | 274° |
| 2026-05-04 10:52 | 22.86578 | 51.13323 | 27777 ft | 473 kts | 274° |
| 2026-05-04 10:52 | 22.86810 | 51.09749 | 27775 ft | 473 kts | 274° |
| 2026-05-04 10:52 | 22.87044 | 51.06202 | 27776 ft | 472 kts | 274° |
| 2026-05-04 10:54 | 22.88698 | 50.81377 | 27778 ft | 471 kts | 274° |
| 2026-05-04 10:54 | 22.88931 | 50.77834 | 27775 ft | 471 kts | 274° |
| 2026-05-04 10:56 | 22.90536 | 50.53052 | 27778 ft | 471 kts | 274° |
| 2026-05-04 10:56 | 22.90762 | 50.49511 | 27776 ft | 471 kts | 274° |
| 2026-05-04 10:56 | 22.90988 | 50.45957 | 27778 ft | 471 kts | 274° |
| 2026-05-04 10:57 | 22.91213 | 50.42415 | 27779 ft | 471 kts | 274° |
| 2026-05-04 10:57 | 22.91438 | 50.38860 | 27777 ft | 471 kts | 274° |
| 2026-05-04 10:57 | 22.91660 | 50.35320 | 27776 ft | 471 kts | 274° |
| 2026-05-04 10:57 | 22.91883 | 50.31769 | 27776 ft | 471 kts | 274° |
| 2026-05-04 10:58 | 22.92105 | 50.28226 | 27778 ft | 471 kts | 274° |
| 2026-05-04 10:58 | 22.92326 | 50.24683 | 27779 ft | 471 kts | 274° |
| 2026-05-04 10:58 | 22.92546 | 50.21129 | 27774 ft | 471 kts | 274° |
| 2026-05-04 10:58 | 22.92765 | 50.17587 | 27775 ft | 471 kts | 274° |
| 2026-05-04 10:59 | 22.92984 | 50.14034 | 27778 ft | 471 kts | 274° |
| 2026-05-04 10:59 | 22.93202 | 50.10493 | 27773 ft | 471 kts | 274° |
| 2026-05-04 10:59 | 22.93416 | 50.06987 | 27775 ft | 471 kts | 274° |
| 2026-05-04 10:59 | 22.93633 | 50.03429 | 27776 ft | 471 kts | 274° |
| 2026-05-04 11:00 | 22.93847 | 49.99913 | 27774 ft | 471 kts | 274° |
| 2026-05-04 11:01 | 22.95333 | 49.75076 | 27774 ft | 471 kts | 273° |
| 2026-05-04 11:02 | 22.95543 | 49.71513 | 27777 ft | 471 kts | 273° |
| 2026-05-04 11:02 | 22.95751 | 49.67971 | 27774 ft | 470 kts | 273° |
| 2026-05-04 11:05 | 22.98578 | 49.18410 | 27779 ft | 471 kts | 273° |
| 2026-05-04 11:06 | 22.98775 | 49.14853 | 27780 ft | 471 kts | 273° |
| 2026-05-04 11:06 | 22.98972 | 49.11291 | 27782 ft | 471 kts | 273° |
| 2026-05-04 11:06 | 22.99167 | 49.07743 | 27784 ft | 471 kts | 273° |
| 2026-05-04 11:06 | 22.99358 | 49.04247 | 27783 ft | 471 kts | 273° |
| 2026-05-04 11:08 | 23.01235 | 48.79462 | 27786 ft | 470 kts | 274° |
| 2026-05-04 11:10 | 23.03197 | 48.54753 | 27790 ft | 470 kts | 274° |
| 2026-05-04 11:12 | 23.05116 | 48.30031 | 27789 ft | 470 kts | 274° |
| 2026-05-04 11:12 | 23.05295 | 48.27686 | 27792 ft | 470 kts | 274° |
| 2026-05-04 11:12 | 23.05566 | 48.24149 | 27791 ft | 470 kts | 274° |
| 2026-05-04 11:12 | 23.05836 | 48.20617 | 27791 ft | 470 kts | 274° |
| 2026-05-04 11:13 | 23.06105 | 48.17077 | 27790 ft | 470 kts | 274° |
| 2026-05-04 11:13 | 23.06373 | 48.13548 | 27787 ft | 469 kts | 274° |
| 2026-05-04 11:13 | 23.06641 | 48.10014 | 27789 ft | 469 kts | 274° |
| 2026-05-04 11:13 | 23.06907 | 48.06475 | 27789 ft | 469 kts | 274° |
| 2026-05-04 11:14 | 23.06997 | 48.05281 | 27791 ft | 469 kts | 274° |
| 2026-05-04 11:16 | 23.14483 | 47.73080 | 28029 ft | 495 kts | 322° |
| 2026-05-04 11:16 | 23.17415 | 47.71083 | 28215 ft | 500 kts | 326° |
| 2026-05-04 11:16 | 23.20422 | 47.69152 | 28523 ft | 501 kts | 326° |
| 2026-05-04 11:17 | 23.23421 | 47.67232 | 28928 ft | 500 kts | 326° |
| 2026-05-04 11:17 | 23.26398 | 47.65290 | 29380 ft | 498 kts | 325° |
| 2026-05-04 11:19 | 23.46744 | 47.51521 | 32112 ft | 489 kts | 324° |
| 2026-05-04 11:19 | 23.49627 | 47.49565 | 32481 ft | 488 kts | 324° |
| 2026-05-04 11:19 | 23.52505 | 47.47613 | 32855 ft | 487 kts | 323° |
| 2026-05-04 11:19 | 23.55378 | 47.45662 | 33231 ft | 486 kts | 323° |
| 2026-05-04 11:20 | 23.58247 | 47.43713 | 33600 ft | 485 kts | 323° |
| 2026-05-04 11:20 | 23.61107 | 47.41768 | 33804 ft | 486 kts | 323° |
| 2026-05-04 11:20 | 23.66853 | 47.37855 | 33843 ft | 486 kts | 323° |
| 2026-05-04 11:22 | 23.89596 | 47.22335 | 33872 ft | 481 kts | 323° |
| 2026-05-04 11:23 | 23.95281 | 47.18444 | 33884 ft | 482 kts | 323° |
| 2026-05-04 11:25 | 24.15525 | 47.05361 | 33893 ft | 490 kts | 332° |
| 2026-05-04 11:25 | 24.21844 | 47.02481 | 33897 ft | 491 kts | 332° |
| 2026-05-04 11:27 | 24.50056 | 46.89404 | 33919 ft | 488 kts | 331° |
| 2026-05-04 11:28 | 24.56306 | 46.86482 | 33923 ft | 487 kts | 331° |
| 2026-05-04 11:28 | 24.62514 | 46.83577 | 33927 ft | 487 kts | 331° |
| 2026-05-04 11:29 | 24.68750 | 46.80656 | 33933 ft | 486 kts | 331° |
| 2026-05-04 11:29 | 24.74703 | 46.77864 | 33941 ft | 487 kts | 331° |
| 2026-05-04 11:33 | 25.13740 | 46.50876 | 33946 ft | 471 kts | 311° |
| 2026-05-04 11:33 | 25.18540 | 46.45948 | 33946 ft | 471 kts | 311° |
| 2026-05-04 11:34 | 25.23344 | 46.41029 | 33952 ft | 470 kts | 311° |
| 2026-05-04 11:34 | 25.28139 | 46.36116 | 33950 ft | 470 kts | 311° |
| 2026-05-04 11:35 | 25.32937 | 46.31191 | 33944 ft | 470 kts | 311° |
| 2026-05-04 11:35 | 25.37728 | 46.26267 | 33939 ft | 469 kts | 310° |
| 2026-05-04 11:36 | 25.42503 | 46.21354 | 33940 ft | 469 kts | 310° |
| 2026-05-04 11:36 | 25.47254 | 46.16459 | 33928 ft | 468 kts | 310° |
| 2026-05-04 11:37 | 25.52010 | 46.11555 | 33927 ft | 468 kts | 310° |
| 2026-05-04 11:37 | 25.56768 | 46.06641 | 33935 ft | 467 kts | 310° |
| 2026-05-04 11:38 | 25.61527 | 46.01722 | 33933 ft | 467 kts | 310° |
| 2026-05-04 11:38 | 25.66285 | 45.96800 | 33937 ft | 467 kts | 310° |
| 2026-05-04 11:39 | 25.71040 | 45.91873 | 33936 ft | 467 kts | 310° |
| 2026-05-04 11:41 | 25.87634 | 45.74636 | 33938 ft | 467 kts | 310° |
| 2026-05-04 11:41 | 25.92368 | 45.69706 | 33934 ft | 466 kts | 310° |
| 2026-05-04 11:42 | 25.97091 | 45.64781 | 33932 ft | 465 kts | 309° |
| 2026-05-04 11:42 | 26.01806 | 45.59857 | 33935 ft | 464 kts | 309° |
| 2026-05-04 11:43 | 26.06503 | 45.54946 | 33931 ft | 463 kts | 309° |
| 2026-05-04 11:43 | 26.11165 | 45.50066 | 33934 ft | 462 kts | 309° |
| 2026-05-04 11:44 | 26.15849 | 45.45157 | 33936 ft | 462 kts | 309° |
| 2026-05-04 11:44 | 26.20522 | 45.40257 | 33946 ft | 461 kts | 309° |
| 2026-05-04 11:45 | 26.25198 | 45.35349 | 33943 ft | 461 kts | 309° |
| 2026-05-04 11:45 | 26.29864 | 45.30446 | 33930 ft | 460 kts | 309° |
| 2026-05-04 11:46 | 26.34519 | 45.25561 | 33926 ft | 459 kts | 309° |
| 2026-05-04 11:46 | 26.39175 | 45.20682 | 33930 ft | 459 kts | 309° |
| 2026-05-04 11:47 | 26.43817 | 45.15809 | 33934 ft | 458 kts | 309° |
| 2026-05-04 11:47 | 26.48455 | 45.10932 | 33933 ft | 458 kts | 309° |
| 2026-05-04 11:48 | 26.53089 | 45.06052 | 33932 ft | 457 kts | 309° |
| 2026-05-04 11:48 | 26.57686 | 45.01206 | 33933 ft | 457 kts | 309° |
| 2026-05-04 11:49 | 26.62313 | 44.96326 | 33931 ft | 457 kts | 308° |
| 2026-05-04 11:49 | 26.66946 | 44.91436 | 33931 ft | 457 kts | 308° |
| 2026-05-04 11:50 | 26.71570 | 44.86548 | 33928 ft | 457 kts | 308° |
| 2026-05-04 11:50 | 26.76188 | 44.81662 | 33924 ft | 457 kts | 308° |
| 2026-05-04 11:51 | 26.80803 | 44.76767 | 33919 ft | 457 kts | 308° |
| 2026-05-04 11:51 | 26.85405 | 44.71876 | 33918 ft | 457 kts | 308° |
| 2026-05-04 11:52 | 26.90018 | 44.66966 | 33919 ft | 457 kts | 308° |
| 2026-05-04 11:52 | 26.94590 | 44.62095 | 33913 ft | 457 kts | 308° |
| 2026-05-04 11:53 | 26.99194 | 44.57185 | 33912 ft | 457 kts | 308° |
| 2026-05-04 11:53 | 27.03800 | 44.52263 | 33912 ft | 457 kts | 308° |
| 2026-05-04 11:55 | 27.21642 | 44.33135 | 33901 ft | 456 kts | 307° |
| 2026-05-04 11:56 | 27.26034 | 44.28424 | 33904 ft | 455 kts | 307° |
| 2026-05-04 11:56 | 27.30576 | 44.23545 | 33901 ft | 455 kts | 307° |
| 2026-05-04 11:57 | 27.35165 | 44.18608 | 33907 ft | 454 kts | 307° |
| 2026-05-04 11:57 | 27.39727 | 44.13694 | 33902 ft | 454 kts | 307° |
| 2026-05-04 11:58 | 27.44282 | 44.08782 | 33908 ft | 454 kts | 307° |
| 2026-05-04 11:58 | 27.48835 | 44.03865 | 33903 ft | 454 kts | 307° |
| 2026-05-04 11:59 | 27.53386 | 43.98945 | 33906 ft | 453 kts | 307° |
| 2026-05-04 11:59 | 27.55668 | 43.96476 | 33907 ft | 453 kts | 307° |
| 2026-05-04 12:00 | 27.62463 | 43.89114 | 33906 ft | 453 kts | 307° |
| 2026-05-04 12:00 | 27.67004 | 43.84186 | 33896 ft | 453 kts | 307° |
| 2026-05-04 12:01 | 27.71544 | 43.79254 | 33900 ft | 452 kts | 307° |
| 2026-05-04 12:02 | 27.87297 | 43.61954 | 33907 ft | 447 kts | 304° |
| 2026-05-04 12:03 | 27.91490 | 43.56857 | 33908 ft | 445 kts | 303° |
| 2026-05-04 12:03 | 27.95657 | 43.51752 | 33910 ft | 444 kts | 303° |
| 2026-05-04 12:04 | 27.99901 | 43.46597 | 33926 ft | 443 kts | 303° |
| 2026-05-04 12:04 | 28.04108 | 43.41509 | 33923 ft | 444 kts | 304° |
| 2026-05-04 12:05 | 28.08325 | 43.36409 | 33918 ft | 443 kts | 304° |
| 2026-05-04 12:05 | 28.12511 | 43.31340 | 33923 ft | 443 kts | 304° |
| 2026-05-04 12:06 | 28.16723 | 43.26233 | 33927 ft | 443 kts | 304° |
| 2026-05-04 12:06 | 28.20926 | 43.21128 | 33930 ft | 443 kts | 304° |
| 2026-05-04 12:07 | 28.25144 | 43.15999 | 33918 ft | 445 kts | 304° |
| 2026-05-04 12:07 | 28.29358 | 43.10868 | 33928 ft | 445 kts | 304° |
| 2026-05-04 12:08 | 28.33589 | 43.05712 | 33928 ft | 446 kts | 304° |
| 2026-05-04 12:08 | 28.37817 | 43.00553 | 33929 ft | 446 kts | 304° |
| 2026-05-04 12:09 | 28.42054 | 42.95376 | 33929 ft | 447 kts | 303° |
| 2026-05-04 12:09 | 28.46285 | 42.90200 | 33931 ft | 447 kts | 304° |
| 2026-05-04 12:10 | 28.50514 | 42.85020 | 33937 ft | 447 kts | 303° |
| 2026-05-04 12:10 | 28.54738 | 42.79838 | 33934 ft | 447 kts | 303° |
| 2026-05-04 12:11 | 28.58961 | 42.74650 | 33932 ft | 447 kts | 303° |
| 2026-05-04 12:11 | 28.63194 | 42.69447 | 33933 ft | 446 kts | 303° |
| 2026-05-04 12:12 | 28.67414 | 42.64252 | 33934 ft | 446 kts | 303° |
| 2026-05-04 12:12 | 28.71621 | 42.59065 | 33929 ft | 447 kts | 303° |
| 2026-05-04 12:14 | 28.88573 | 42.38091 | 33937 ft | 451 kts | 303° |
| 2026-05-04 12:15 | 28.92827 | 42.32812 | 33938 ft | 452 kts | 303° |
| 2026-05-04 12:15 | 28.97079 | 42.27528 | 33951 ft | 452 kts | 303° |
| 2026-05-04 12:16 | 29.01303 | 42.22271 | 33951 ft | 452 kts | 303° |
| 2026-05-04 12:16 | 29.05564 | 42.16963 | 33953 ft | 452 kts | 303° |
| 2026-05-04 12:17 | 29.09816 | 42.11660 | 33957 ft | 452 kts | 303° |
| 2026-05-04 12:17 | 29.14057 | 42.06363 | 33947 ft | 452 kts | 303° |
| 2026-05-04 12:18 | 29.18289 | 42.01068 | 33958 ft | 451 kts | 303° |
| 2026-05-04 12:18 | 29.22526 | 41.95760 | 33964 ft | 451 kts | 303° |
| 2026-05-04 12:19 | 29.26760 | 41.90449 | 33969 ft | 450 kts | 303° |
| 2026-05-04 12:19 | 29.30981 | 41.85148 | 33955 ft | 450 kts | 303° |
| 2026-05-04 12:20 | 29.35197 | 41.79846 | 33961 ft | 450 kts | 303° |
| 2026-05-04 12:20 | 29.39414 | 41.74534 | 33971 ft | 450 kts | 303° |
| 2026-05-04 12:21 | 29.43629 | 41.69218 | 33972 ft | 450 kts | 303° |
| 2026-05-04 12:21 | 29.47852 | 41.63886 | 33980 ft | 451 kts | 303° |
| 2026-05-04 12:22 | 29.52044 | 41.58586 | 33980 ft | 451 kts | 303° |
| 2026-05-04 12:22 | 29.56267 | 41.53238 | 33983 ft | 452 kts | 303° |
| 2026-05-04 12:23 | 29.60486 | 41.47890 | 33984 ft | 452 kts | 303° |
| 2026-05-04 12:23 | 29.63995 | 41.43435 | 33983 ft | 452 kts | 304° |
| 2026-05-04 12:24 | 29.68215 | 41.38071 | 33984 ft | 452 kts | 304° |
| 2026-05-04 12:24 | 29.72432 | 41.32706 | 33983 ft | 452 kts | 304° |
| 2026-05-04 12:25 | 29.76977 | 41.27598 | 33994 ft | 459 kts | 309° |
| 2026-05-04 12:25 | 29.81774 | 41.22727 | 33995 ft | 459 kts | 310° |
| 2026-05-04 12:26 | 29.86565 | 41.17852 | 33991 ft | 459 kts | 309° |
| 2026-05-04 12:26 | 29.91309 | 41.12987 | 33996 ft | 458 kts | 309° |
| 2026-05-04 12:27 | 29.96062 | 41.08092 | 33984 ft | 458 kts | 309° |
| 2026-05-04 12:27 | 30.00808 | 41.03196 | 33993 ft | 457 kts | 309° |
| 2026-05-04 12:28 | 30.05551 | 40.98299 | 33996 ft | 457 kts | 309° |
| 2026-05-04 12:28 | 30.10281 | 40.93409 | 34002 ft | 456 kts | 309° |
| 2026-05-04 12:29 | 30.15017 | 40.88506 | 34001 ft | 455 kts | 309° |
| 2026-05-04 12:29 | 30.19701 | 40.83650 | 34001 ft | 454 kts | 308° |
| 2026-05-04 12:30 | 30.24400 | 40.78772 | 34002 ft | 453 kts | 308° |
| 2026-05-04 12:30 | 30.29084 | 40.73903 | 34000 ft | 452 kts | 308° |
| 2026-05-04 12:31 | 30.33760 | 40.69035 | 33995 ft | 451 kts | 308° |
| 2026-05-04 12:31 | 30.38416 | 40.64182 | 33991 ft | 450 kts | 308° |
| 2026-05-04 12:32 | 30.45438 | 40.56971 | 33996 ft | 450 kts | 309° |
| 2026-05-04 12:33 | 30.50150 | 40.52161 | 33990 ft | 449 kts | 308° |
| 2026-05-04 12:33 | 30.54808 | 40.47388 | 33994 ft | 449 kts | 308° |
| 2026-05-04 12:34 | 30.59474 | 40.42595 | 33981 ft | 448 kts | 308° |
| 2026-05-04 12:34 | 30.64143 | 40.37791 | 33974 ft | 448 kts | 308° |
| 2026-05-04 12:35 | 30.68814 | 40.32978 | 33977 ft | 448 kts | 308° |
| 2026-05-04 12:35 | 30.73483 | 40.28161 | 33982 ft | 448 kts | 308° |
| 2026-05-04 12:36 | 30.78117 | 40.23373 | 33983 ft | 448 kts | 308° |
| 2026-05-04 12:36 | 30.82810 | 40.18517 | 33985 ft | 448 kts | 308° |
| 2026-05-04 12:37 | 30.87441 | 40.13722 | 33985 ft | 448 kts | 308° |
| 2026-05-04 12:37 | 30.92093 | 40.08897 | 33984 ft | 448 kts | 308° |
| 2026-05-04 12:38 | 30.96741 | 40.04069 | 33984 ft | 447 kts | 308° |
| 2026-05-04 12:38 | 31.01386 | 39.99239 | 33979 ft | 446 kts | 308° |
| 2026-05-04 12:39 | 31.06024 | 39.94409 | 33985 ft | 446 kts | 308° |
| 2026-05-04 12:39 | 31.10640 | 39.89594 | 33987 ft | 445 kts | 308° |
| 2026-05-04 12:40 | 31.15227 | 39.84804 | 33975 ft | 444 kts | 308° |
| 2026-05-04 12:40 | 31.19838 | 39.79981 | 33982 ft | 444 kts | 308° |
| 2026-05-04 12:41 | 31.24434 | 39.75168 | 33989 ft | 444 kts | 308° |
| 2026-05-04 12:41 | 31.29033 | 39.70344 | 33984 ft | 444 kts | 308° |
| 2026-05-04 12:42 | 31.33596 | 39.65553 | 33984 ft | 444 kts | 308° |
| 2026-05-04 12:42 | 31.38205 | 39.60705 | 33985 ft | 445 kts | 308° |
| 2026-05-04 12:43 | 31.42813 | 39.55854 | 33988 ft | 445 kts | 307° |
| 2026-05-04 12:43 | 31.47425 | 39.50987 | 33991 ft | 446 kts | 307° |
| 2026-05-04 12:44 | 31.52039 | 39.46109 | 33992 ft | 447 kts | 307° |
| 2026-05-04 12:44 | 31.56641 | 39.41237 | 33990 ft | 448 kts | 307° |
| 2026-05-04 12:45 | 31.61276 | 39.36323 | 33996 ft | 449 kts | 307° |
| 2026-05-04 12:45 | 31.65906 | 39.31450 | 34507 ft | 434 kts | 308° |
| 2026-05-04 12:45 | 31.68225 | 39.29225 | 35259 ft | 428 kts | 310° |
| 2026-05-04 12:46 | 31.70612 | 39.27094 | 35345 ft | 437 kts | 312° |
| 2026-05-04 12:46 | 31.73135 | 39.24956 | 34911 ft | 456 kts | 314° |
| 2026-05-04 12:46 | 31.75794 | 39.22798 | 34296 ft | 470 kts | 315° |
| 2026-05-04 12:46 | 31.78495 | 39.20704 | 33595 ft | 471 kts | 316° |
| 2026-05-04 12:47 | 31.81273 | 39.18642 | 32897 ft | 469 kts | 317° |
| 2026-05-04 12:47 | 31.84052 | 39.16661 | 32314 ft | 466 kts | 318° |
| 2026-05-04 12:47 | 31.86840 | 39.14747 | 31851 ft | 460 kts | 319° |
| 2026-05-04 12:47 | 31.89461 | 39.12765 | 31949 ft | 438 kts | 310° |
| 2026-05-04 12:48 | 31.91792 | 39.10456 | 32176 ft | 439 kts | 309° |
| 2026-05-04 12:48 | 31.94249 | 39.08233 | 32366 ft | 454 kts | 315° |
| 2026-05-04 12:48 | 31.96985 | 39.06270 | 32570 ft | 468 kts | 320° |
| 2026-05-04 12:48 | 31.99911 | 39.04515 | 32908 ft | 473 kts | 323° |
| 2026-05-04 12:49 | 32.02879 | 39.02826 | 33330 ft | 473 kts | 323° |
| 2026-05-04 12:49 | 32.05837 | 39.01133 | 33791 ft | 471 kts | 322° |
| 2026-05-04 12:49 | 32.08769 | 38.99428 | 34204 ft | 469 kts | 322° |
| 2026-05-04 12:49 | 32.11679 | 38.97718 | 34544 ft | 468 kts | 322° |
| 2026-05-04 12:50 | 32.14598 | 38.95993 | 34846 ft | 468 kts | 321° |
| 2026-05-04 12:50 | 32.17473 | 38.94291 | 35159 ft | 468 kts | 321° |
| 2026-05-04 12:50 | 32.20423 | 38.92544 | 35468 ft | 468 kts | 321° |
| 2026-05-04 12:50 | 32.23290 | 38.90848 | 35774 ft | 467 kts | 321° |
| 2026-05-04 12:51 | 32.26203 | 38.89123 | 35911 ft | 470 kts | 321° |
| 2026-05-04 12:51 | 32.32063 | 38.85651 | 35968 ft | 469 kts | 321° |
| 2026-05-04 12:52 | 32.37891 | 38.82202 | 35976 ft | 466 kts | 321° |
| 2026-05-04 12:52 | 32.43684 | 38.78762 | 35968 ft | 465 kts | 321° |
| 2026-05-04 12:53 | 32.49462 | 38.75324 | 35957 ft | 465 kts | 321° |
| 2026-05-04 12:53 | 32.55215 | 38.71896 | 35957 ft | 466 kts | 321° |
| 2026-05-04 12:54 | 32.61012 | 38.68440 | 35959 ft | 467 kts | 321° |
| 2026-05-04 12:54 | 32.66839 | 38.64965 | 35958 ft | 469 kts | 321° |
| 2026-05-04 12:55 | 32.72691 | 38.61472 | 35953 ft | 471 kts | 321° |
| 2026-05-04 12:55 | 32.78547 | 38.57971 | 35944 ft | 472 kts | 321° |
| 2026-05-04 12:56 | 32.84422 | 38.54453 | 35938 ft | 473 kts | 321° |
| 2026-05-04 12:56 | 32.90294 | 38.50931 | 35936 ft | 473 kts | 321° |
| 2026-05-04 12:57 | 32.96164 | 38.47405 | 35933 ft | 472 kts | 321° |
| 2026-05-04 12:57 | 33.02018 | 38.43884 | 35927 ft | 472 kts | 321° |
| 2026-05-04 12:58 | 33.07847 | 38.40373 | 35922 ft | 471 kts | 321° |
| 2026-05-04 12:58 | 33.13713 | 38.36835 | 35913 ft | 470 kts | 321° |
| 2026-05-04 12:59 | 33.19539 | 38.33282 | 35901 ft | 469 kts | 321° |
| 2026-05-04 12:59 | 33.25297 | 38.29762 | 35904 ft | 469 kts | 321° |
| 2026-05-04 13:00 | 33.31121 | 38.26208 | 35913 ft | 468 kts | 321° |
| 2026-05-04 13:00 | 33.36928 | 38.22656 | 35914 ft | 468 kts | 321° |
| 2026-05-04 13:01 | 33.42739 | 38.19096 | 35922 ft | 468 kts | 321° |
| 2026-05-04 13:01 | 33.48546 | 38.15544 | 35913 ft | 469 kts | 321° |
| 2026-05-04 13:02 | 33.54339 | 38.12035 | 35911 ft | 469 kts | 321° |
| 2026-05-04 13:02 | 33.60172 | 38.08498 | 35910 ft | 469 kts | 321° |
| 2026-05-04 13:03 | 33.66007 | 38.04948 | 35900 ft | 469 kts | 321° |
| 2026-05-04 13:03 | 33.71830 | 38.01398 | 35896 ft | 469 kts | 321° |
| 2026-05-04 13:04 | 33.77626 | 37.97858 | 35895 ft | 470 kts | 321° |
| 2026-05-04 13:04 | 33.83419 | 37.94252 | 35883 ft | 464 kts | 317° |
| 2026-05-04 13:04 | 33.86024 | 37.91978 | 35883 ft | 448 kts | 308° |
| 2026-05-04 13:05 | 33.88238 | 37.89397 | 35886 ft | 439 kts | 301° |
| 2026-05-04 13:05 | 33.90138 | 37.86584 | 35874 ft | 428 kts | 294° |
| 2026-05-04 13:05 | 33.91733 | 37.83565 | 35884 ft | 425 kts | 292° |
| 2026-05-04 13:06 | 33.94828 | 37.77523 | 35884 ft | 428 kts | 292° |
| 2026-05-04 13:06 | 33.97981 | 37.71400 | 35874 ft | 431 kts | 292° |
| 2026-05-04 13:07 | 34.01162 | 37.65277 | 35875 ft | 433 kts | 292° |
| 2026-05-04 13:07 | 34.04369 | 37.59117 | 35874 ft | 434 kts | 292° |
| 2026-05-04 13:08 | 34.07037 | 37.53985 | 35869 ft | 435 kts | 292° |
| 2026-05-04 13:08 | 34.10263 | 37.47768 | 35866 ft | 435 kts | 292° |
| 2026-05-04 13:09 | 34.13476 | 37.41560 | 35861 ft | 436 kts | 292° |
| 2026-05-04 13:09 | 34.16683 | 37.35356 | 35851 ft | 436 kts | 292° |
| 2026-05-04 13:10 | 34.19893 | 37.29156 | 35855 ft | 437 kts | 294° |
| 2026-05-04 13:10 | 34.23676 | 37.23291 | 35855 ft | 449 kts | 303° |
| 2026-05-04 13:11 | 34.27993 | 37.17866 | 35862 ft | 450 kts | 304° |
| 2026-05-04 13:11 | 34.32347 | 37.12417 | 35860 ft | 450 kts | 304° |
| 2026-05-04 13:12 | 34.36681 | 37.06946 | 35862 ft | 450 kts | 304° |
| 2026-05-04 13:12 | 34.41001 | 37.01462 | 35862 ft | 449 kts | 304° |
| 2026-05-04 13:13 | 34.45310 | 36.95979 | 35861 ft | 449 kts | 304° |
| 2026-05-04 13:13 | 34.46377 | 36.94621 | 35861 ft | 449 kts | 304° |
| 2026-05-04 13:16 | 34.49094 | 36.91158 | 35859 ft | 449 kts | 304° |
| 2026-05-04 13:16 | 34.53394 | 36.85673 | 35863 ft | 449 kts | 304° |
| 2026-05-04 13:17 | 34.57689 | 36.80185 | 35863 ft | 448 kts | 304° |
| 2026-05-04 13:17 | 34.61987 | 36.74683 | 35843 ft | 448 kts | 304° |
| 2026-05-04 13:18 | 34.66276 | 36.69186 | 35873 ft | 448 kts | 304° |
| 2026-05-04 13:18 | 34.70539 | 36.63711 | 35858 ft | 448 kts | 304° |
| 2026-05-04 13:19 | 34.74849 | 36.58164 | 35863 ft | 449 kts | 304° |
| 2026-05-04 13:19 | 34.79135 | 36.52637 | 35872 ft | 449 kts | 304° |
| 2026-05-04 13:20 | 34.83393 | 36.47135 | 35876 ft | 450 kts | 305° |
| 2026-05-04 13:20 | 34.87700 | 36.41562 | 35877 ft | 451 kts | 305° |
| 2026-05-04 13:21 | 34.92009 | 36.35978 | 35878 ft | 452 kts | 305° |
| 2026-05-04 13:21 | 34.96324 | 36.30377 | 35880 ft | 454 kts | 305° |
| 2026-05-04 13:22 | 35.00644 | 36.24759 | 35882 ft | 455 kts | 305° |
| 2026-05-04 13:22 | 35.04976 | 36.19119 | 35887 ft | 455 kts | 305° |
| 2026-05-04 13:23 | 35.09282 | 36.13499 | 35886 ft | 456 kts | 305° |
| 2026-05-04 13:23 | 35.13612 | 36.07840 | 35892 ft | 457 kts | 306° |
| 2026-05-04 13:24 | 35.17954 | 36.02159 | 35874 ft | 457 kts | 306° |
| 2026-05-04 13:24 | 35.19947 | 35.99186 | 35858 ft | 444 kts | 294° |
| 2026-05-04 13:24 | 35.21163 | 35.95795 | 35875 ft | 431 kts | 281° |
| 2026-05-04 13:25 | 35.21868 | 35.88581 | 35862 ft | 427 kts | 261° |
| 2026-05-04 13:25 | 35.21351 | 35.85052 | 35876 ft | 428 kts | 257° |
| 2026-05-04 13:25 | 35.20210 | 35.77865 | 35863 ft | 432 kts | 262° |
| 2026-05-04 13:26 | 35.20641 | 35.70510 | 35868 ft | 439 kts | 278° |
| 2026-05-04 13:26 | 35.22699 | 35.63499 | 35867 ft | 442 kts | 292° |
| 2026-05-04 13:27 | 35.25628 | 35.56871 | 35856 ft | 443 kts | 293° |
| 2026-05-04 13:27 | 35.28583 | 35.50245 | 35837 ft | 443 kts | 292° |
| 2026-05-04 13:28 | 35.31373 | 35.43876 | 35839 ft | 444 kts | 292° |